Kiselevsk, Russia
Current Conditions -  °F | °C
As of 6:30 AM on Saturday 29 Nov 2014 (Local Time) from UNEE Reporting Station
Haze Haze  
Wind Chill: -48°   Ceiling: 20000
Heat Index: -29°   Visibility: 3mi
Dew Point: -35°   Wind: 7mph
Humidity: 75%   Direction: 180°S
Pressure: 30.77"   Gusts: NA
Location:  53.98°N, 86.67°E
Report Text: UNEE 282330Z 18003MPS 5000 BR BKN200 M34/M37 Q1042 NOSIG RMKQFE758 23451040
Loading
Personal Weather Stations






























Interactive Weather Map New forecast layout! Learn more

10-Day Weather Forecast

Advertisements
Track Severe Weather on mobile